• Join FlightAware (Why Join?)
  • Login
  • US Flag 
10:50AM EDT


 

Airport Tracker/Info


-or-


 

Live Flight TrackerFlight Track Log ✈ SLI2072 ✈ 21-Aug-2013 ✈ MMMX / MEX - MMLP / LAP

Flight Track Log - Related Links

Times and Time Zones

All times are in EDT time to prevent confusion due to time zone crossing. See the SLI2072 flight status page for this flight to view local times or setup timezone preferences in your user account.

Time Position Orientation Groundspeed Altitude Reporting Facility
EDT Latitude Longitude Course Direction KTS MPH feet Rate Location/Type
05:19PM 20.2420 -100.8618 296° West  Level Estimated
05:20PM 20.2800 -100.9475 295° West  Level Estimated
05:21PM 20.3178 -101.0332 295° West  Level Estimated
05:22PM 20.3557 -101.1190 295° West  Level Estimated
05:23PM 20.3935 -101.2048 295° West  Level Estimated
05:24PM 20.4312 -101.2907 295° West  Level Estimated
05:25PM 20.4689 -101.3766 295° West  Level Estimated
05:26PM 20.5066 -101.4625 295° West  Level Estimated
05:27PM 20.5442 -101.5485 295° West  Level Estimated
05:28PM 20.5818 -101.6345 295° West  Level Estimated
05:29PM 20.6193 -101.7206 295° West  Level Estimated
05:30PM 20.6568 -101.8067 295° West  Level Estimated
05:31PM 20.6943 -101.8928 295° West  Level Estimated
05:32PM 20.7317 -101.9790 295° West  Level Estimated
05:33PM 20.7691 -102.0652 295° West  Level Estimated
05:34PM 20.8064 -102.1515 295° West  Level Estimated
05:35PM 20.8437 -102.2378 295° West  Level Estimated
05:36PM 20.8809 -102.3242 295° West  Level Estimated
05:37PM 20.9181 -102.4106 295° West  Level Estimated
05:38PM 20.9553 -102.4970 295° West  Level Estimated
05:39PM 20.9924 -102.5835 295° West  Level Estimated
05:40PM 21.0294 -102.6701 295° West  Level Estimated
05:41PM 21.0665 -102.7566 295° West  Level Estimated
05:42PM 21.1035 -102.8432 295° West  Level Estimated
05:43PM 21.1404 -102.9299 295° West  Level Estimated
05:44PM 21.1773 -103.0166 295° West  Level Estimated
05:45PM 21.2141 -103.1033 295° West  Level Estimated
05:46PM 21.2509 -103.1901 294° West  Level Estimated
05:47PM 21.2877 -103.2770 294° West  Level Estimated
05:48PM 21.3244 -103.3639 294° West  Level Estimated
05:49PM 21.3611 -103.4508 294° West  Level Estimated
05:50PM 21.3977 -103.5377 294° West  Level Estimated
05:51PM 21.4343 -103.6247 294° West  Level Estimated
05:52PM 21.4708 -103.7118 294° West  Level Estimated
05:53PM 21.5073 -103.7989 294° West  Level Estimated
05:54PM 21.5437 -103.8860 294° West  Level Estimated
05:55PM 21.5801 -103.9732 294° West  Level Estimated
05:56PM 21.6165 -104.0604 294° West  Level Estimated
05:57PM 21.6528 -104.1477 294° West  Level Estimated
05:58PM 21.6890 -104.2350 294° West  Level Estimated
05:59PM 21.7253 -104.3224 294° West  Level Estimated
06:00PM 21.7614 -104.4098 294° West  Level Estimated
06:01PM 21.7975 -104.4972 294° West  Level Estimated
06:02PM 21.8336 -104.5847 294° West  Level Estimated
06:03PM 21.8696 -104.6722 294° West  Level Estimated
06:04PM 21.9056 -104.7598 294° West  Level Estimated
06:05PM 21.9416 -104.8474 294° West  Level Estimated
06:06PM 21.9775 -104.9351 294° West  Level Estimated
06:07PM 22.0133 -105.0228 294° West  Level Estimated
06:08PM 22.0491 -105.1106 294° West  Level Estimated
06:09PM 22.0849 -105.1984 294° West  Level Estimated
06:10PM 22.1206 -105.2862 294° West  Level Estimated
06:11PM 22.1562 -105.3741 294° West  Level Estimated
06:12PM 22.1918 -105.4620 294° West  Level Estimated
06:13PM 22.2274 -105.5500 294° West  Level Estimated
06:14PM 22.2629 -105.6380 294° West  Level Estimated
06:15PM 22.2984 -105.7261 294° West  Level Estimated
06:16PM 22.3338 -105.8142 294° West  Level Estimated
06:17PM 22.3692 -105.9024 293° West  Level Estimated
06:18PM 22.4045 -105.9906 293° West  Level Estimated
06:19PM 22.4398 -106.0788 293° West  Level Estimated
06:20PM 22.4750 -106.1671 293° West  Level Estimated
06:21PM 22.5102 -106.2554 293° West  Level Estimated
06:22PM 22.5453 -106.3438 293° West  Level Estimated
06:23PM 22.5804 -106.4323 293° West  Level Estimated
06:24PM 22.6154 -106.5207 293° West  Level Estimated
06:25PM 22.6504 -106.6093 293° West  Level Estimated
06:26PM 22.6854 -106.6978 293° West  Level Estimated
06:27PM 22.7203 -106.7864 293° West  Level Estimated
06:28PM 22.7551 -106.8751 293° West  Level Estimated
06:29PM 22.7899 -106.9638 293° West  Level Estimated
06:30PM 22.8246 -107.0525 293° West  Level Estimated
06:31PM 22.8593 -107.1413 293° West  Level Estimated
06:32PM 22.8940 -107.2301 293° West  Level Estimated
06:33PM 22.9286 -107.3190 293° West  Level Estimated
06:34PM 22.9631 -107.4079 293° West  Level Estimated
06:35PM 22.9976 -107.4969 293° West  Level Estimated
06:36PM 23.0321 -107.5859 293° West  Level Estimated
06:37PM 23.0665 -107.6750 293° West  Level Estimated
06:38PM 23.1008 -107.7641 293° West  Level Estimated
06:39PM 23.1351 -107.8532 293° West  Level Estimated
06:40PM 23.1694 -107.9424 293° West  Level Estimated
06:41PM 23.2036 -108.0317 293° West  Level Estimated
06:42PM 23.2377 -108.1209 293° West  Level Estimated
06:43PM 23.2718 -108.2103 293° West  Level Estimated
06:44PM 23.3059 -108.2997 293° West  Level Estimated
06:45PM 23.3399 -108.3891 293° West  Level Estimated
06:46PM 23.3738 -108.4786 292° West  Level Estimated
06:47PM 23.4077 -108.5681 292° West  Level Estimated
06:48PM 23.4415 -108.6576 292° West  Level Estimated
06:49PM 23.4753 -108.7472 292° West  Level Estimated
06:50PM 23.5091 -108.8369 292° West  Level Estimated
06:51PM 23.5428 -108.9266 292° West  Level Estimated
06:52PM 23.5764 -109.0163 292° West  Level Estimated
06:53PM 23.6100 -109.1061 292° West  Level Estimated
06:54PM 23.6435 -109.1960 292° West  Level Estimated
06:55PM 23.6770 -109.2858 292° West  Level Estimated
06:56PM 23.7104 -109.3758 292° West  Level Estimated
06:57PM 23.7438 -109.4658 292° West  Level Estimated
06:58PM 23.7771 -109.5558 292° West  Level Estimated
06:59PM 23.8104 -109.6458 292° West  Level Estimated
07:00PM 23.8436 -109.7359 292° West  Level Estimated
07:01PM 23.8768 -109.8261 292° West  Level Estimated
07:02PM 23.9099 -109.9163 292° West  Level Estimated
07:03PM 23.9430 -110.0066 292° West  Level Estimated
07:04PM 23.9760 -110.0969 292° West  Level Estimated
07:05PM 24.0090 -110.1872 292° West  Level Estimated
07:06PM 24.0419 -110.2776 292° West  Level Estimated
07:07PM 24.0727 -110.3625 292° West  Level Estimated
07:08PM 24.0727 -110.3625 49° Northeast  Level Estimated
07:09PM 24.0727 -110.3625 49° Northeast  Level Estimated
07:10PM 24.0727 -110.3625 49° Northeast  Level Estimated
07:11PM 24.0727 -110.3625 49° Northeast  Level Estimated
07:12PM 24.0727 -110.3625 49° Northeast  Level Estimated
07:13PM 24.0727 -110.3625 49° Northeast  Level Estimated
07:14PM 24.0727 -110.3625 49° Northeast  Level Estimated
07:15PM 24.0727 -110.3625 49° Northeast  Level Estimated
07:16PM 24.0727 -110.3625 49° Northeast  Level Estimated
07:17PM 24.0727 -110.3625 49° Northeast  Level Estimated
07:18PM 24.0727 -110.3625 49° Northeast  Level Estimated
07:19PM 24.0727 -110.3625 49° Northeast  Level Estimated
07:20PM 24.0727 -110.3625 49° Northeast  Level Estimated
07:21PM 24.0727 -110.3625 49° Northeast  Level Estimated
07:22PM 24.0727 -110.3625 49° Northeast  Level Estimated
07:23PM 24.0727 -110.3625 49° Northeast  Level Estimated